createdAt,value
2022-10-20T00:01:24.104Z,8.23
2022-10-20T00:05:27.197Z,8.18
2022-10-20T00:09:30.196Z,8.15
2022-10-20T00:13:33.304Z,8.08
2022-10-20T00:17:37.719Z,8.04
2022-10-20T00:21:40.749Z,7.98
2022-10-20T00:25:43.831Z,7.95
2022-10-20T00:29:49.191Z,7.92
2022-10-20T00:33:54.030Z,7.89
2022-10-20T00:37:57.119Z,7.84
2022-10-20T00:42:03.742Z,7.78
2022-10-20T00:46:07.043Z,7.74
2022-10-20T00:50:15.041Z,7.69
2022-10-20T00:54:21.465Z,7.64
2022-10-20T00:58:25.806Z,7.59
2022-10-20T01:02:29.095Z,7.57
2022-10-20T01:06:33.624Z,7.56
2022-10-20T01:10:42.450Z,7.53
2022-10-20T01:14:52.209Z,7.51
2022-10-20T01:19:03.377Z,7.46
2022-10-20T01:23:39.167Z,7.39
2022-10-20T01:27:45.772Z,7.30
2022-10-20T01:31:57.316Z,7.22
2022-10-20T01:36:05.823Z,7.14
2022-10-20T01:40:17.511Z,7.08
2022-10-20T01:44:26.158Z,7.02
2022-10-20T01:48:33.259Z,6.95
2022-10-20T01:52:36.522Z,6.94
2022-10-20T01:56:47.062Z,6.92
2022-10-20T02:00:54.074Z,6.93
2022-10-20T02:05:12.320Z,6.91
2022-10-20T02:09:21.055Z,6.88
2022-10-20T02:13:25.648Z,6.87
2022-10-20T02:17:30.468Z,6.86
2022-10-20T02:21:33.459Z,6.85
2022-10-20T02:25:39.341Z,6.82
2022-10-20T02:29:46.135Z,6.81
2022-10-20T02:33:51.565Z,6.78
2022-10-20T02:37:54.595Z,6.76
2022-10-20T02:41:57.600Z,6.71
2022-10-20T02:46:00.670Z,6.67
2022-10-20T02:50:05.427Z,6.64
2022-10-20T02:54:08.420Z,6.60
2022-10-20T02:58:11.549Z,6.57
2022-10-20T03:02:14.571Z,6.53
2022-10-20T03:06:18.982Z,6.49
2022-10-20T03:10:22.077Z,6.42
2022-10-20T03:14:25.147Z,6.34
2022-10-20T03:18:28.222Z,6.25
2022-10-20T03:22:32.649Z,6.18
2022-10-20T03:26:35.782Z,6.14
2022-10-20T03:30:38.827Z,6.11
2022-10-20T03:34:41.838Z,6.10
2022-10-20T03:38:46.440Z,6.09
2022-10-20T03:42:49.444Z,6.06
2022-10-20T03:46:52.463Z,6.03
2022-10-20T03:50:55.466Z,6.01
2022-10-20T03:54:59.846Z,5.96
2022-10-20T04:03:07.356Z,5.90
2022-10-20T04:07:10.366Z,5.85
2022-10-20T04:11:14.876Z,5.80
2022-10-20T04:15:19.292Z,5.74
2022-10-20T04:19:22.268Z,5.68
2022-10-20T04:23:30.680Z,5.65
2022-10-20T04:27:35.686Z,5.63
2022-10-20T04:31:41.747Z,5.59
2022-10-20T04:35:46.783Z,5.54
2022-10-20T04:39:51.155Z,5.52
2022-10-20T04:43:55.532Z,5.51
2022-10-20T04:47:58.571Z,5.50
2022-10-20T04:52:01.848Z,5.50
2022-10-20T04:56:06.083Z,5.47
2022-10-20T05:00:11.560Z,5.47
2022-10-20T05:04:20.950Z,5.44
2022-10-20T05:08:23.991Z,5.43
2022-10-20T05:12:27.921Z,5.40
2022-10-20T05:16:32.767Z,5.37
2022-10-20T05:20:41.141Z,5.33
2022-10-20T05:24:48.942Z,5.31
2022-10-20T05:28:52.752Z,5.28
2022-10-20T05:32:57.257Z,5.24
2022-10-20T05:37:00.329Z,5.24
2022-10-20T05:41:07.207Z,5.21
2022-10-20T05:45:10.858Z,5.20
2022-10-20T05:49:17.650Z,5.21
2022-10-20T05:53:20.919Z,5.19
2022-10-20T05:57:24.229Z,5.19
2022-10-20T06:01:38.761Z,5.20
2022-10-20T06:05:43.235Z,5.22
2022-10-20T06:09:46.250Z,5.21
2022-10-20T06:13:51.923Z,5.23
2022-10-20T06:17:56.130Z,5.25
2022-10-20T06:22:03.973Z,5.27
2022-10-20T06:26:12.311Z,5.31
2022-10-20T06:30:15.565Z,5.35
2022-10-20T06:34:20.717Z,5.41
2022-10-20T06:38:25.606Z,5.46
2022-10-20T06:42:29.463Z,5.52
2022-10-20T06:46:34.318Z,5.59
2022-10-20T06:50:37.347Z,5.66
2022-10-20T06:54:41.739Z,5.75
2022-10-20T06:58:46.708Z,5.85
2022-10-20T07:02:51.056Z,5.92
2022-10-20T07:06:54.591Z,6.00
2022-10-20T07:11:03.735Z,6.11
2022-10-20T07:15:07.890Z,6.22
2022-10-20T07:19:11.221Z,6.36
2022-10-20T07:23:14.407Z,6.46
2022-10-20T07:27:18.771Z,6.59
2022-10-20T07:31:23.830Z,6.67
2022-10-20T07:35:26.908Z,6.78
2022-10-20T07:39:29.915Z,6.89
2022-10-20T07:43:34.346Z,6.99
2022-10-20T07:47:38.298Z,7.07
2022-10-20T07:51:42.327Z,7.15
2022-10-20T07:55:46.060Z,7.24
2022-10-20T07:59:50.463Z,7.31
2022-10-20T08:03:53.490Z,7.40
2022-10-20T08:07:58.294Z,7.49
2022-10-20T08:12:01.436Z,7.57
2022-10-20T08:16:07.846Z,7.67
2022-10-20T08:20:23.609Z,7.78
2022-10-20T08:24:29.501Z,7.91
2022-10-20T08:28:32.551Z,7.97
2022-10-20T08:32:37.284Z,8.06
2022-10-20T08:36:40.566Z,8.20
2022-10-20T08:40:45.020Z,8.23
2022-10-20T08:44:48.796Z,8.33
2022-10-20T08:48:53.307Z,8.43
2022-10-20T08:53:00.339Z,8.59
2022-10-20T08:57:03.374Z,8.69
2022-10-20T09:01:19.187Z,8.81
2022-10-20T09:05:28.700Z,8.89
2022-10-20T09:09:33.184Z,8.99
2022-10-20T09:13:38.451Z,9.12
2022-10-20T09:17:43.115Z,9.26
2022-10-20T09:21:52.474Z,9.37
2022-10-20T09:25:55.545Z,9.49
2022-10-20T09:29:58.610Z,9.64
2022-10-20T09:34:01.649Z,9.74
2022-10-20T09:38:19.853Z,9.83
2022-10-20T09:42:26.480Z,9.96
2022-10-20T09:46:32.118Z,10.12
2022-10-20T09:50:39.594Z,10.27
2022-10-20T09:54:48.755Z,10.40
2022-10-20T09:58:52.013Z,10.54
2022-10-20T10:03:25.675Z,10.62
2022-10-20T10:07:32.868Z,10.69
2022-10-20T10:11:38.074Z,10.86
2022-10-20T10:15:41.946Z,11.01
2022-10-20T10:19:52.530Z,11.09
2022-10-20T10:24:01.202Z,11.14
2022-10-20T10:28:21.262Z,11.21
2022-10-20T10:32:27.285Z,11.38
2022-10-20T10:36:34.208Z,11.47
2022-10-20T10:40:46.650Z,11.58
2022-10-20T10:45:00.751Z,11.71
2022-10-20T10:49:26.327Z,11.90
2022-10-20T10:53:43.044Z,12.01
2022-10-20T10:57:57.862Z,12.15
2022-10-20T11:02:25.183Z,12.19
2022-10-20T11:06:39.671Z,12.18
2022-10-20T11:10:53.071Z,12.27
2022-10-20T11:15:16.603Z,12.34
2022-10-20T11:19:39.751Z,12.43
2022-10-20T11:24:03.636Z,12.52
2022-10-20T11:28:27.877Z,12.54
2022-10-20T11:36:48.552Z,12.75
2022-10-20T11:41:01.374Z,12.82
2022-10-20T11:45:18.111Z,12.88
2022-10-20T11:49:21.243Z,12.98
2022-10-20T11:53:39.573Z,13.07
2022-10-20T11:57:55.371Z,13.15
2022-10-20T12:02:47.484Z,13.13
2022-10-20T12:07:10.646Z,13.15
2022-10-20T12:11:23.066Z,13.26
2022-10-20T12:15:28.875Z,13.33
2022-10-20T12:19:33.217Z,13.35
2022-10-20T12:24:03.725Z,13.38
2022-10-20T12:28:41.272Z,13.38
2022-10-20T12:33:16.635Z,13.37
2022-10-20T12:37:21.671Z,13.32
2022-10-20T12:41:30.142Z,13.30
2022-10-20T12:45:41.537Z,13.28
2022-10-20T12:49:54.565Z,13.30
2022-10-20T12:54:02.574Z,13.35
2022-10-20T12:58:13.995Z,13.32
2022-10-20T13:03:01.327Z,13.28
2022-10-20T13:07:05.819Z,13.33
2022-10-20T13:11:34.419Z,13.40
2022-10-20T13:15:39.950Z,13.42
2022-10-20T13:19:47.721Z,13.39
2022-10-20T13:23:58.777Z,13.40
2022-10-20T13:28:07.730Z,13.38
2022-10-20T13:32:21.455Z,13.36
2022-10-20T13:36:36.638Z,13.37
2022-10-20T13:40:49.966Z,13.34
2022-10-20T13:45:03.249Z,13.35
2022-10-20T13:49:39.143Z,13.36
2022-10-20T13:53:45.601Z,13.42
2022-10-20T13:57:55.576Z,13.46
2022-10-20T14:02:01.393Z,13.49
2022-10-20T14:06:04.411Z,13.52
2022-10-20T14:10:09.465Z,13.53
2022-10-20T14:14:19.239Z,13.51
2022-10-20T14:18:25.154Z,13.47
2022-10-20T14:22:28.235Z,13.44
2022-10-20T14:26:32.529Z,13.41
2022-10-20T14:30:40.148Z,13.36
2022-10-20T14:34:57.426Z,13.33
2022-10-20T14:39:01.495Z,13.31
2022-10-20T14:43:08.373Z,13.28
2022-10-20T14:47:15.746Z,13.25
2022-10-20T14:51:37.567Z,13.19
2022-10-20T14:55:40.746Z,13.10
2022-10-20T14:59:51.634Z,13.06
2022-10-20T15:04:16.171Z,13.00
2022-10-20T15:08:26.222Z,12.94
2022-10-20T15:12:33.048Z,12.88
2022-10-20T15:16:42.699Z,12.83
2022-10-20T15:20:47.843Z,12.76
2022-10-20T15:24:51.173Z,12.68
2022-10-20T15:28:54.363Z,12.63
2022-10-20T15:32:58.036Z,12.61
2022-10-20T15:37:02.671Z,12.56
2022-10-20T15:41:06.416Z,12.48
2022-10-20T15:45:17.301Z,12.41
2022-10-20T15:49:21.059Z,12.35
2022-10-20T15:53:25.666Z,12.30
2022-10-20T15:57:29.114Z,12.28
2022-10-20T16:01:32.388Z,12.21
2022-10-20T16:05:35.603Z,12.17
2022-10-20T16:09:40.078Z,12.15
2022-10-20T16:13:43.503Z,12.12
2022-10-20T16:21:59.187Z,12.10
2022-10-20T16:26:08.073Z,12.05
2022-10-20T16:30:11.304Z,11.99
2022-10-20T16:34:14.337Z,11.97
2022-10-20T16:38:17.347Z,11.92
2022-10-20T16:42:21.749Z,11.88
2022-10-20T16:46:24.776Z,11.79
2022-10-20T16:50:28.102Z,11.72
2022-10-20T16:54:31.467Z,11.70
2022-10-20T16:58:36.538Z,11.65
2022-10-20T17:02:42.916Z,11.58
2022-10-20T17:06:45.980Z,11.54
2022-10-20T17:10:49.078Z,11.53
2022-10-20T17:14:53.425Z,11.51
2022-10-20T17:18:57.380Z,11.46
2022-10-20T17:23:00.378Z,11.38
2022-10-20T17:27:03.392Z,11.33
2022-10-20T17:31:10.077Z,11.30
2022-10-20T17:35:14.551Z,11.27
2022-10-20T17:39:17.707Z,11.24
2022-10-20T17:43:20.745Z,11.18
2022-10-20T17:47:25.263Z,11.21
2022-10-20T17:51:31.965Z,11.19
2022-10-20T17:55:37.619Z,11.19
2022-10-20T17:59:52.362Z,11.19
2022-10-20T18:04:00.362Z,11.21
2022-10-20T18:08:03.592Z,11.21
2022-10-20T18:12:06.801Z,11.21
2022-10-20T18:16:11.599Z,11.18
2022-10-20T18:20:16.141Z,11.18
2022-10-20T18:24:19.787Z,11.17
2022-10-20T18:28:23.237Z,11.18
2022-10-20T18:32:26.449Z,11.16
2022-10-20T18:36:31.358Z,11.15
2022-10-20T18:40:34.748Z,11.13
2022-10-20T18:44:38.187Z,11.09
2022-10-20T18:48:42.395Z,11.08
2022-10-20T18:52:46.891Z,11.04
2022-10-20T18:56:49.887Z,11.01
2022-10-20T19:00:58.755Z,11.00
2022-10-20T19:05:01.795Z,11.01
2022-10-20T19:09:08.127Z,10.98
2022-10-20T19:13:11.222Z,10.96
2022-10-20T19:17:14.236Z,10.95
2022-10-20T19:21:18.504Z,10.94
2022-10-20T19:25:22.875Z,10.90
2022-10-20T19:29:25.997Z,10.90
2022-10-20T19:33:29.534Z,10.91
2022-10-20T19:37:33.069Z,10.92
2022-10-20T19:41:37.521Z,10.93
2022-10-20T19:45:40.687Z,10.91
2022-10-20T19:49:43.932Z,10.89
2022-10-20T19:53:48.108Z,10.89
2022-10-20T19:57:53.256Z,10.86
2022-10-20T20:01:56.566Z,10.84
2022-10-20T20:06:00.584Z,10.82
2022-10-20T20:10:03.784Z,10.82
2022-10-20T20:14:10.295Z,10.80
2022-10-20T20:18:13.771Z,10.74
2022-10-20T20:22:16.805Z,10.73
2022-10-20T20:26:19.821Z,10.73
2022-10-20T20:30:24.260Z,10.69
2022-10-20T20:34:27.255Z,10.66
2022-10-20T20:38:32.516Z,10.66
2022-10-20T20:42:35.541Z,10.65
2022-10-20T20:46:39.961Z,10.60
2022-10-20T20:50:43.027Z,10.60
2022-10-20T20:54:46.015Z,10.57
2022-10-20T20:58:49.991Z,10.56
2022-10-20T21:07:03.023Z,10.46
2022-10-20T21:11:07.993Z,10.43
2022-10-20T21:15:11.776Z,10.41
2022-10-20T21:19:16.204Z,10.39
2022-10-20T21:23:19.211Z,10.37
2022-10-20T21:27:22.221Z,10.35
2022-10-20T21:31:28.026Z,10.31
2022-10-20T21:35:32.729Z,10.28
2022-10-20T21:39:35.744Z,10.24
2022-10-20T21:43:42.673Z,10.23
2022-10-20T21:47:45.674Z,10.20
2022-10-20T21:51:52.610Z,10.17
2022-10-20T21:55:56.015Z,10.14
2022-10-20T21:59:59.233Z,10.10
2022-10-20T22:04:02.254Z,10.07
2022-10-20T22:08:07.396Z,10.07
2022-10-20T22:12:10.617Z,10.04
2022-10-20T22:16:15.584Z,10.02
2022-10-20T22:20:18.814Z,10.00
2022-10-20T22:24:23.980Z,9.96
2022-10-20T22:28:27.440Z,9.94
2022-10-20T22:32:30.673Z,9.90
2022-10-20T22:36:33.828Z,9.86
2022-10-20T22:40:38.207Z,9.85
2022-10-20T22:44:41.204Z,9.84
2022-10-20T22:48:46.293Z,9.83
2022-10-20T22:52:50.952Z,9.81
2022-10-20T22:56:55.497Z,9.79
2022-10-20T23:00:59.755Z,9.77
2022-10-20T23:05:03.050Z,9.74
2022-10-20T23:09:06.163Z,9.70
2022-10-20T23:13:10.607Z,9.69
2022-10-20T23:17:13.873Z,9.68
2022-10-20T23:21:17.532Z,9.64
2022-10-20T23:25:20.557Z,9.59
2022-10-20T23:29:25.533Z,9.53
2022-10-20T23:33:28.800Z,9.50
2022-10-20T23:37:32.169Z,9.49
2022-10-20T23:41:35.228Z,9.47
2022-10-20T23:45:39.567Z,9.42
2022-10-20T23:49:42.601Z,9.37
2022-10-20T23:53:45.614Z,9.35
2022-10-20T23:57:50.691Z,9.31
